createdAt,value
2022-12-05T00:02:01.149Z,2.80
2022-12-05T00:04:29.426Z,2.70
2022-12-05T00:06:57.612Z,2.70
2022-12-05T00:09:25.814Z,2.70
2022-12-05T00:11:53.954Z,2.80
2022-12-05T00:14:21.971Z,2.70
2022-12-05T00:16:50.132Z,2.70
2022-12-05T00:19:19.864Z,2.60
2022-12-05T00:21:48.061Z,2.60
2022-12-05T00:24:17.324Z,2.60
2022-12-05T00:26:45.652Z,2.60
2022-12-05T00:29:14.080Z,2.80
2022-12-05T00:31:42.722Z,2.60
2022-12-05T00:34:10.898Z,2.90
2022-12-05T00:36:40.960Z,2.70
2022-12-05T00:39:10.721Z,2.80
2022-12-05T00:41:39.382Z,2.90
2022-12-05T00:44:08.050Z,2.60
2022-12-05T00:46:37.285Z,2.70
2022-12-05T00:49:06.700Z,2.60
2022-12-05T00:51:36.624Z,2.70
2022-12-05T00:54:08.339Z,2.60
2022-12-05T00:56:36.418Z,2.60
2022-12-05T00:59:05.941Z,2.70
2022-12-05T01:01:36.097Z,2.70
2022-12-05T01:04:07.333Z,2.70
2022-12-05T01:06:35.682Z,2.70
2022-12-05T01:09:05.407Z,2.70
2022-12-05T01:11:39.317Z,2.80
2022-12-05T01:14:09.491Z,2.80
2022-12-05T01:16:39.424Z,2.90
2022-12-05T01:19:10.431Z,2.80
2022-12-05T01:21:38.637Z,2.70
2022-12-05T01:24:08.924Z,2.80
2022-12-05T01:26:37.089Z,2.80
2022-12-05T01:29:05.488Z,2.70
2022-12-05T01:31:36.220Z,2.60
2022-12-05T01:34:06.763Z,2.70
2022-12-05T01:36:35.414Z,2.70
2022-12-05T01:39:04.315Z,2.70
2022-12-05T01:41:36.286Z,2.80
2022-12-05T01:44:06.795Z,2.70
2022-12-05T01:46:36.508Z,2.70
2022-12-05T01:49:08.988Z,2.70
2022-12-05T01:51:39.746Z,2.70
2022-12-05T01:54:09.053Z,2.70
2022-12-05T01:56:38.737Z,2.90
2022-12-05T01:59:10.789Z,2.70
2022-12-05T02:01:39.686Z,2.60
2022-12-05T02:04:08.523Z,2.60
2022-12-05T02:06:36.548Z,2.60
2022-12-05T02:09:05.174Z,2.70
2022-12-05T02:11:35.243Z,2.60
2022-12-05T02:14:16.854Z,2.60
2022-12-05T02:16:53.455Z,2.50
2022-12-05T02:19:53.849Z,2.50
2022-12-05T02:22:49.641Z,2.50
2022-12-05T02:25:40.732Z,2.50
2022-12-05T02:28:30.314Z,2.60
2022-12-05T02:31:05.818Z,2.60
2022-12-05T02:33:39.260Z,2.50
2022-12-05T02:36:12.663Z,2.50
2022-12-05T02:38:47.291Z,2.50
2022-12-05T02:41:22.644Z,2.50
2022-12-05T02:43:56.093Z,2.50
2022-12-05T02:46:28.421Z,2.50
2022-12-05T02:49:00.317Z,2.50
2022-12-05T02:51:32.977Z,2.50
2022-12-05T02:54:05.825Z,2.50
2022-12-05T02:56:35.749Z,2.50
2022-12-05T02:59:04.607Z,2.70
2022-12-05T03:01:34.454Z,2.50
2022-12-05T03:04:05.550Z,2.50
2022-12-05T03:06:37.657Z,2.50
2022-12-05T03:09:10.168Z,2.60
2022-12-05T03:11:42.728Z,2.80
2022-12-05T03:14:16.024Z,2.70
2022-12-05T03:16:51.360Z,2.60
2022-12-05T03:19:24.009Z,2.70
2022-12-05T03:21:57.179Z,2.70
2022-12-05T03:24:26.068Z,2.60
2022-12-05T03:27:02.388Z,2.60
2022-12-05T03:29:37.567Z,2.60
2022-12-05T03:32:13.951Z,2.80
2022-12-05T03:34:54.342Z,2.70
2022-12-05T03:37:28.041Z,2.70
2022-12-05T03:40:06.040Z,2.70
2022-12-05T03:42:38.387Z,2.70
2022-12-05T03:45:12.281Z,2.60
2022-12-05T03:47:49.498Z,2.60
2022-12-05T03:50:23.466Z,2.70
2022-12-05T03:53:19.180Z,2.70
2022-12-05T03:55:48.047Z,2.70
2022-12-05T03:58:20.657Z,2.60
2022-12-05T04:00:54.430Z,2.60
2022-12-05T04:03:39.109Z,2.60
2022-12-05T04:06:15.065Z,2.60
2022-12-05T04:08:47.986Z,2.60
2022-12-05T04:11:19.727Z,2.60
2022-12-05T04:13:51.397Z,2.60
2022-12-05T04:16:41.584Z,2.60
2022-12-05T04:19:18.468Z,2.70
2022-12-05T04:21:48.108Z,2.60
2022-12-05T04:24:38.683Z,2.80
2022-12-05T04:27:23.898Z,2.90
2022-12-05T04:30:00.113Z,2.70
2022-12-05T04:32:37.305Z,2.70
2022-12-05T04:35:12.849Z,2.60
2022-12-05T04:37:46.802Z,2.70
2022-12-05T04:40:21.197Z,2.70
2022-12-05T04:42:52.508Z,2.70
2022-12-05T04:45:23.617Z,2.70
2022-12-05T04:47:57.251Z,2.60
2022-12-05T04:50:31.404Z,2.60
2022-12-05T04:53:01.689Z,2.60
2022-12-05T04:55:32.620Z,2.60
2022-12-05T04:58:07.298Z,2.60
2022-12-05T05:00:43.125Z,2.60
2022-12-05T05:03:17.863Z,2.60
2022-12-05T05:05:50.544Z,2.60
2022-12-05T05:08:20.845Z,2.60
2022-12-05T05:10:56.758Z,2.60
2022-12-05T05:13:25.124Z,2.80
2022-12-05T05:15:53.256Z,2.50
2022-12-05T05:18:21.331Z,2.50
2022-12-05T05:20:50.834Z,2.50
2022-12-05T05:23:18.923Z,2.50
2022-12-05T05:25:47.058Z,2.50
2022-12-05T05:28:15.140Z,2.60
2022-12-05T05:30:43.160Z,2.40
2022-12-05T05:33:11.305Z,2.40
2022-12-05T05:35:39.442Z,2.30
2022-12-05T05:38:09.047Z,2.40
2022-12-05T05:40:37.770Z,2.50
2022-12-05T05:43:06.137Z,2.30
2022-12-05T05:45:34.180Z,2.50
2022-12-05T05:48:02.593Z,2.30
2022-12-05T05:50:30.696Z,2.30
2022-12-05T05:52:58.749Z,2.30
2022-12-05T05:55:28.200Z,2.30
2022-12-05T05:57:56.321Z,2.30
2022-12-05T06:00:24.634Z,2.30
2022-12-05T06:02:52.965Z,2.30
2022-12-05T06:05:21.223Z,2.30
2022-12-05T06:07:49.412Z,2.30
2022-12-05T06:10:17.796Z,2.30
2022-12-05T06:12:47.289Z,2.30
2022-12-05T06:15:15.611Z,2.20
2022-12-05T06:17:43.720Z,2.60
2022-12-05T06:20:12.479Z,2.30
2022-12-05T06:22:40.665Z,2.20
2022-12-05T06:25:10.855Z,2.20
2022-12-05T06:27:38.974Z,2.20
2022-12-05T06:30:10.004Z,2.10
2022-12-05T06:32:38.200Z,2.10
2022-12-05T06:35:15.294Z,2.10
2022-12-05T06:37:43.743Z,2.10
2022-12-05T06:40:12.837Z,2.30
2022-12-05T06:42:40.938Z,2.00
2022-12-05T06:45:11.532Z,2.20
2022-12-05T06:47:39.662Z,1.90
2022-12-05T06:50:09.392Z,1.80
2022-12-05T06:52:37.486Z,1.80
2022-12-05T06:55:06.490Z,1.90
2022-12-05T06:57:34.498Z,1.70
2022-12-05T07:00:16.586Z,1.70
2022-12-05T07:02:46.069Z,2.00
2022-12-05T07:05:14.142Z,1.50
2022-12-05T07:07:42.258Z,1.50
2022-12-05T07:10:10.630Z,1.50
2022-12-05T07:12:38.694Z,1.40
2022-12-05T07:15:07.464Z,1.60
2022-12-05T07:17:38.120Z,1.30
2022-12-05T07:20:10.439Z,1.30
2022-12-05T07:22:38.682Z,1.30
2022-12-05T07:25:07.587Z,1.30
2022-12-05T07:27:35.856Z,1.30
2022-12-05T07:30:04.151Z,1.30
2022-12-05T07:32:34.450Z,1.20
2022-12-05T07:35:02.673Z,1.20
2022-12-05T07:37:32.224Z,1.30
2022-12-05T07:40:00.817Z,1.50
2022-12-05T07:42:29.326Z,1.20
2022-12-05T07:44:57.548Z,1.30
2022-12-05T07:47:25.790Z,1.20
2022-12-05T07:49:54.008Z,1.50
2022-12-05T07:52:22.198Z,1.60
2022-12-05T07:54:51.748Z,1.20
2022-12-05T07:57:19.958Z,1.20
2022-12-05T07:59:48.161Z,1.30
2022-12-05T08:02:16.402Z,1.30
2022-12-05T08:04:44.518Z,1.50
2022-12-05T08:07:12.706Z,1.30
2022-12-05T08:09:40.869Z,1.30
2022-12-05T08:12:10.771Z,1.40
2022-12-05T08:14:39.054Z,1.30
2022-12-05T08:17:07.211Z,1.60
2022-12-05T08:19:35.480Z,1.40
2022-12-05T08:22:04.078Z,1.40
2022-12-05T08:24:32.258Z,1.40
2022-12-05T08:27:00.489Z,1.40
2022-12-05T08:29:30.148Z,1.40
2022-12-05T08:31:58.874Z,1.40
2022-12-05T08:34:27.311Z,1.40
2022-12-05T08:36:55.486Z,1.40
2022-12-05T08:39:24.001Z,1.40
2022-12-05T08:41:52.264Z,1.40
2022-12-05T08:44:20.436Z,1.40
2022-12-05T08:46:51.313Z,1.40
2022-12-05T08:49:20.136Z,1.50
2022-12-05T08:51:48.310Z,1.40
2022-12-05T08:54:18.331Z,1.50
2022-12-05T08:56:46.583Z,1.50
2022-12-05T08:59:14.896Z,1.50
2022-12-05T09:01:43.924Z,1.50
2022-12-05T09:04:13.983Z,1.50
2022-12-05T09:06:42.605Z,1.50
2022-12-05T09:09:12.680Z,1.40
2022-12-05T09:11:46.626Z,1.50
2022-12-05T09:14:15.586Z,1.50
2022-12-05T09:16:46.127Z,1.50
2022-12-05T09:19:18.219Z,1.50
2022-12-05T09:21:46.842Z,1.50
2022-12-05T09:24:15.766Z,1.50
2022-12-05T09:26:44.101Z,1.60
2022-12-05T09:29:17.304Z,1.60
2022-12-05T09:31:46.296Z,1.60
2022-12-05T09:34:18.138Z,1.80
2022-12-05T09:36:49.720Z,1.50
2022-12-05T09:39:18.011Z,1.60
2022-12-05T09:42:09.073Z,1.60
2022-12-05T09:45:05.900Z,1.60
2022-12-05T09:47:44.942Z,1.60
2022-12-05T09:50:22.769Z,1.60
2022-12-05T09:53:03.516Z,1.70
2022-12-05T09:55:44.960Z,1.70
2022-12-05T09:58:27.407Z,1.60
2022-12-05T10:01:01.796Z,1.80
2022-12-05T10:03:36.922Z,1.90
2022-12-05T10:06:14.682Z,1.90
2022-12-05T10:08:59.387Z,2.00
2022-12-05T10:11:33.628Z,2.00
2022-12-05T10:14:09.963Z,2.00
2022-12-05T10:16:42.802Z,2.30
2022-12-05T10:19:16.982Z,2.10
2022-12-05T10:21:54.698Z,2.20
2022-12-05T10:24:30.929Z,2.20
2022-12-05T10:27:02.099Z,2.40
2022-12-05T10:29:32.991Z,2.30
2022-12-05T10:32:06.622Z,2.40
2022-12-05T10:34:40.054Z,2.40
2022-12-05T10:37:16.476Z,2.40
2022-12-05T10:39:44.808Z,2.50
2022-12-05T10:42:17.189Z,2.40
2022-12-05T10:44:45.636Z,2.40
2022-12-05T10:47:14.086Z,2.60
2022-12-05T10:49:43.130Z,2.30
2022-12-05T10:52:15.298Z,2.40
2022-12-05T10:54:48.569Z,2.30
2022-12-05T10:57:23.965Z,2.30
2022-12-05T10:59:52.045Z,2.20
2022-12-05T11:02:26.075Z,2.50
2022-12-05T11:04:55.268Z,2.20
2022-12-05T11:07:30.270Z,2.20
2022-12-05T11:10:00.981Z,2.20
2022-12-05T11:12:31.343Z,2.20
2022-12-05T11:15:02.471Z,2.20
2022-12-05T11:17:34.069Z,2.20
2022-12-05T11:20:02.837Z,2.10
2022-12-05T11:22:36.970Z,2.10
2022-12-05T11:25:26.532Z,2.10
2022-12-05T11:27:58.374Z,2.10
2022-12-05T11:30:30.509Z,2.10
2022-12-05T11:33:13.349Z,2.20
2022-12-05T11:35:41.867Z,2.20
2022-12-05T11:38:14.194Z,2.20
2022-12-05T11:40:52.229Z,2.20
2022-12-05T11:43:42.819Z,2.20
2022-12-05T11:46:26.418Z,2.20
2022-12-05T11:49:13.218Z,2.10
2022-12-05T11:51:44.545Z,2.20
2022-12-05T11:58:06.742Z,2.20
2022-12-05T12:00:45.774Z,2.10
2022-12-05T12:03:45.412Z,2.10
2022-12-05T12:06:26.286Z,2.20
2022-12-05T12:09:13.857Z,2.10
2022-12-05T12:11:51.333Z,2.10
2022-12-05T12:14:27.088Z,2.10
2022-12-05T12:17:08.746Z,2.10
2022-12-05T12:20:00.766Z,2.10
2022-12-05T12:22:43.947Z,2.10
2022-12-05T12:25:31.348Z,2.10
2022-12-05T12:28:12.140Z,2.20
2022-12-05T12:30:57.641Z,2.10
2022-12-05T12:33:34.259Z,2.20
2022-12-05T12:36:11.195Z,2.20
2022-12-05T12:39:04.033Z,2.20
2022-12-05T12:41:52.127Z,2.10
2022-12-05T12:44:47.229Z,2.00
2022-12-05T12:47:24.767Z,1.80
2022-12-05T12:50:04.219Z,1.80
2022-12-05T12:52:49.079Z,2.10
2022-12-05T12:55:23.854Z,1.90
2022-12-05T12:58:06.924Z,2.00
2022-12-05T13:00:51.121Z,2.00
2022-12-05T13:03:23.848Z,2.00
2022-12-05T13:05:57.883Z,2.00
2022-12-05T13:08:29.553Z,1.90
2022-12-05T13:11:01.740Z,1.90
2022-12-05T13:13:36.501Z,1.70
2022-12-05T13:16:09.032Z,1.70
2022-12-05T13:18:37.229Z,1.70
2022-12-05T13:21:09.312Z,1.70
2022-12-05T13:23:44.765Z,1.60
2022-12-05T13:26:13.820Z,1.70
2022-12-05T13:28:50.943Z,1.50
2022-12-05T13:31:21.360Z,1.80
2022-12-05T13:33:51.534Z,1.70
2022-12-05T13:36:40.174Z,1.70
2022-12-05T13:39:37.139Z,1.70
2022-12-05T13:42:16.106Z,1.70
2022-12-05T13:44:46.535Z,1.70
2022-12-05T13:47:32.379Z,1.70
2022-12-05T13:50:06.339Z,1.60
2022-12-05T13:52:42.233Z,1.60
2022-12-05T13:55:23.444Z,1.50
2022-12-05T13:57:54.387Z,1.50
2022-12-05T14:00:34.306Z,1.40
2022-12-05T14:03:42.965Z,1.40
2022-12-05T14:06:11.077Z,1.40
2022-12-05T14:08:55.294Z,1.30
2022-12-05T14:11:23.564Z,1.30
2022-12-05T14:13:52.079Z,1.30
2022-12-05T14:16:47.985Z,1.30
2022-12-05T14:19:51.927Z,1.30
2022-12-05T14:23:05.066Z,1.30
2022-12-05T14:26:05.584Z,1.30
2022-12-05T14:28:59.424Z,1.30
2022-12-05T14:31:48.758Z,1.30
2022-12-05T14:34:25.337Z,1.30
2022-12-05T14:37:00.387Z,1.30
2022-12-05T14:39:39.159Z,1.30
2022-12-05T14:42:22.300Z,1.30
2022-12-05T14:44:52.884Z,1.40
2022-12-05T14:47:25.547Z,1.60
2022-12-05T14:49:58.011Z,1.40
2022-12-05T14:52:27.724Z,1.40
2022-12-05T14:55:02.247Z,1.40
2022-12-05T14:57:33.602Z,1.40
2022-12-05T15:00:08.467Z,1.40
2022-12-05T15:02:41.489Z,1.40
2022-12-05T15:05:23.523Z,1.40
2022-12-05T15:07:53.209Z,1.30
2022-12-05T15:10:24.918Z,1.30
2022-12-05T15:12:58.561Z,1.30
2022-12-05T15:15:37.584Z,1.30
2022-12-05T15:18:17.965Z,1.30
2022-12-05T15:20:52.192Z,1.30
2022-12-05T15:23:39.542Z,1.30
2022-12-05T15:26:45.706Z,1.30
2022-12-05T15:29:14.217Z,1.20
2022-12-05T15:31:47.349Z,1.40
2022-12-05T15:34:21.781Z,1.20
2022-12-05T15:36:53.366Z,1.30
2022-12-05T15:39:25.887Z,1.30
2022-12-05T15:41:54.514Z,1.30
2022-12-05T15:44:32.811Z,1.30
2022-12-05T15:47:04.181Z,1.30
2022-12-05T15:49:32.316Z,1.30
2022-12-05T15:52:12.509Z,1.30
2022-12-05T15:54:41.295Z,1.20
2022-12-05T15:57:13.786Z,1.20
2022-12-05T15:59:47.094Z,1.10
2022-12-05T16:02:20.460Z,1.20
2022-12-05T16:04:52.789Z,1.10
2022-12-05T16:07:23.120Z,1.10
2022-12-05T16:09:52.087Z,1.20
2022-12-05T16:12:28.455Z,1.20
2022-12-05T16:15:03.491Z,1.10
2022-12-05T16:17:39.296Z,1.20
2022-12-05T16:20:26.690Z,1.40
2022-12-05T16:22:56.770Z,1.20
2022-12-05T16:25:26.806Z,1.30
2022-12-05T16:27:59.895Z,1.30
2022-12-05T16:30:30.740Z,1.30
2022-12-05T16:33:04.800Z,1.30
2022-12-05T16:35:40.161Z,1.30
2022-12-05T16:38:15.682Z,1.30
2022-12-05T16:40:53.485Z,1.40
2022-12-05T16:43:30.252Z,1.30
2022-12-05T16:46:21.588Z,1.40
2022-12-05T16:49:20.546Z,1.40
2022-12-05T16:51:57.039Z,1.30
2022-12-05T16:54:25.477Z,1.30
2022-12-05T16:56:53.917Z,1.40
2022-12-05T16:59:25.601Z,1.30
2022-12-05T17:01:55.249Z,1.60
2022-12-05T17:04:23.652Z,1.30
2022-12-05T17:06:51.983Z,1.30
2022-12-05T17:09:20.637Z,1.40
2022-12-05T17:11:52.159Z,1.40
2022-12-05T17:14:21.098Z,1.40
2022-12-05T17:16:49.534Z,1.40
2022-12-05T17:19:19.222Z,1.40
2022-12-05T17:21:47.629Z,1.50
2022-12-05T17:24:18.469Z,1.40
2022-12-05T17:26:48.681Z,1.30
2022-12-05T17:29:17.042Z,1.30
2022-12-05T17:31:45.658Z,1.30
2022-12-05T17:34:19.229Z,1.20
2022-12-05T17:36:47.893Z,1.30
2022-12-05T17:39:16.158Z,1.30
2022-12-05T17:41:44.652Z,1.30
2022-12-05T17:44:15.577Z,1.30
2022-12-05T17:46:44.558Z,1.50
2022-12-05T17:49:15.904Z,1.30
2022-12-05T17:52:13.598Z,1.20
2022-12-05T17:54:34.201Z,1.20
2022-12-05T17:57:02.524Z,1.20
2022-12-05T17:59:30.585Z,1.20
2022-12-05T18:01:59.292Z,1.20
2022-12-05T18:04:27.733Z,1.20
2022-12-05T18:06:57.472Z,1.20
2022-12-05T18:09:25.830Z,1.20
2022-12-05T18:11:56.116Z,1.20
2022-12-05T18:14:25.824Z,1.20
2022-12-05T18:16:54.440Z,1.20
2022-12-05T18:19:22.965Z,1.50
2022-12-05T18:21:51.413Z,1.20
2022-12-05T18:24:21.376Z,1.30
2022-12-05T18:26:49.791Z,1.30
2022-12-05T18:29:18.359Z,1.30
2022-12-05T18:31:46.558Z,1.20
2022-12-05T18:34:14.827Z,1.20
2022-12-05T18:36:43.085Z,1.20
2022-12-05T18:39:14.632Z,1.30
2022-12-05T18:41:44.290Z,1.20
2022-12-05T18:44:13.027Z,1.20
2022-12-05T18:46:41.782Z,1.30
2022-12-05T18:49:12.518Z,1.30
2022-12-05T18:51:42.039Z,1.60
2022-12-05T18:54:10.423Z,1.30
2022-12-05T18:56:40.224Z,1.30
2022-12-05T18:59:14.894Z,1.30
2022-12-05T19:01:43.635Z,1.30
2022-12-05T19:04:13.361Z,1.30
2022-12-05T19:06:43.255Z,1.50
2022-12-05T19:09:15.506Z,1.40
2022-12-05T19:11:47.757Z,1.40
2022-12-05T19:14:18.956Z,1.40
2022-12-05T19:16:51.613Z,1.60
2022-12-05T19:19:22.737Z,1.40
2022-12-05T19:21:51.052Z,1.40
2022-12-05T19:24:20.546Z,1.30
2022-12-05T19:26:48.890Z,1.40
2022-12-05T19:29:18.724Z,1.40
2022-12-05T19:31:47.308Z,1.40
2022-12-05T19:34:15.760Z,1.40
2022-12-05T19:36:46.897Z,1.40
2022-12-05T19:39:17.359Z,1.40
2022-12-05T19:41:46.107Z,1.40
2022-12-05T19:44:14.658Z,1.40
2022-12-05T19:46:45.558Z,1.40
2022-12-05T19:49:15.411Z,1.40
2022-12-05T19:51:44.745Z,1.40
2022-12-05T19:54:17.784Z,1.40
2022-12-05T19:56:46.267Z,1.40
2022-12-05T19:59:16.837Z,1.40
2022-12-05T20:01:46.641Z,1.40
2022-12-05T20:04:16.625Z,1.30
2022-12-05T20:06:47.084Z,1.40
2022-12-05T20:09:17.662Z,1.40
2022-12-05T20:11:54.231Z,1.40
2022-12-05T20:14:25.445Z,1.40
2022-12-05T20:16:55.786Z,1.40
2022-12-05T20:19:24.769Z,1.40
2022-12-05T20:21:55.431Z,1.40
2022-12-05T20:24:23.934Z,1.40
2022-12-05T20:26:52.994Z,1.40
2022-12-05T20:29:21.508Z,1.40
2022-12-05T20:31:52.230Z,1.40
2022-12-05T20:34:21.931Z,1.40
2022-12-05T20:36:50.369Z,1.30
2022-12-05T20:39:20.812Z,1.40
2022-12-05T20:41:51.008Z,1.40
2022-12-05T20:44:19.311Z,1.40
2022-12-05T20:46:50.074Z,1.40
2022-12-05T20:49:18.738Z,1.50
2022-12-05T20:51:49.051Z,1.70
2022-12-05T20:54:18.760Z,1.50
2022-12-05T20:56:47.623Z,1.50
2022-12-05T20:59:18.097Z,1.50
2022-12-05T21:01:47.669Z,1.40
2022-12-05T21:04:16.272Z,1.40
2022-12-05T21:06:46.567Z,1.40
2022-12-05T21:09:26.285Z,1.40
2022-12-05T21:11:55.012Z,1.40
2022-12-05T21:14:23.604Z,1.30
2022-12-05T21:16:53.256Z,1.40
2022-12-05T21:19:23.518Z,1.40
2022-12-05T21:21:54.182Z,1.40
2022-12-05T21:24:24.563Z,1.40
2022-12-05T21:26:53.839Z,1.40
2022-12-05T21:29:22.546Z,1.40
2022-12-05T21:31:53.395Z,1.40
2022-12-05T21:34:22.955Z,1.40
2022-12-05T21:36:51.759Z,1.50
2022-12-05T21:39:21.013Z,1.40
2022-12-05T21:41:50.911Z,1.40
2022-12-05T21:44:20.861Z,1.40
2022-12-05T21:46:49.692Z,1.40
2022-12-05T21:49:18.207Z,1.50
2022-12-05T21:51:46.447Z,1.50
2022-12-05T21:54:14.591Z,1.50
2022-12-05T21:56:43.544Z,1.50
2022-12-05T21:59:13.243Z,1.50
2022-12-05T22:01:41.489Z,1.60
2022-12-05T22:04:09.901Z,1.50
2022-12-05T22:06:39.045Z,1.40
2022-12-05T22:09:07.264Z,1.40
2022-12-05T22:11:35.505Z,1.40
2022-12-05T22:14:03.746Z,1.40
2022-12-05T22:16:35.243Z,1.40
2022-12-05T22:19:04.074Z,1.30
2022-12-05T22:21:34.031Z,1.40
2022-12-05T22:24:02.701Z,1.40
2022-12-05T22:26:30.885Z,1.40
2022-12-05T22:28:59.086Z,1.40
2022-12-05T22:31:27.310Z,1.70
2022-12-05T22:33:56.946Z,1.50
2022-12-05T22:36:25.315Z,1.20
2022-12-05T22:38:53.636Z,1.40
2022-12-05T22:41:23.903Z,1.30
2022-12-05T22:43:56.956Z,1.30
2022-12-05T22:46:27.045Z,1.30
2022-12-05T22:48:56.776Z,1.40
2022-12-05T22:51:26.362Z,1.30
2022-12-05T22:53:55.101Z,1.30
2022-12-05T22:56:24.885Z,1.40
2022-12-05T22:58:55.970Z,1.40
2022-12-05T23:01:25.571Z,1.50
2022-12-05T23:03:58.214Z,1.40
2022-12-05T23:06:26.763Z,1.30
2022-12-05T23:08:54.944Z,1.50
2022-12-05T23:11:24.021Z,1.40
2022-12-05T23:13:56.907Z,1.40
2022-12-05T23:16:29.351Z,1.40
2022-12-05T23:19:02.077Z,1.50
2022-12-05T23:21:31.912Z,1.40
2022-12-05T23:24:01.495Z,1.40
2022-12-05T23:26:33.456Z,1.40
2022-12-05T23:29:01.768Z,1.30
2022-12-05T23:31:29.935Z,1.30
2022-12-05T23:34:03.264Z,1.20
2022-12-05T23:36:32.250Z,1.30
2022-12-05T23:39:00.576Z,1.30
2022-12-05T23:41:28.796Z,1.30
2022-12-05T23:43:57.361Z,1.40
2022-12-05T23:46:27.948Z,1.50
2022-12-05T23:48:56.436Z,1.40
2022-12-05T23:51:27.471Z,1.30
2022-12-05T23:53:57.579Z,1.30
2022-12-05T23:56:27.764Z,1.30
2022-12-05T23:58:56.806Z,1.30
